sensor_id;sensor_type;location;lat;lon;timestamp;P1;durP1;ratioP1;P2;durP2;ratioP2
14125;SDS011;7141;49.484;11.242;2023-02-04T00:01:34;10.43;;;2.50;;
14125;SDS011;7141;49.484;11.242;2023-02-04T00:04:00;9.43;;;2.40;;
14125;SDS011;7141;49.484;11.242;2023-02-04T00:06:26;11.00;;;1.90;;
14125;SDS011;7141;49.484;11.242;2023-02-04T00:08:52;15.13;;;3.00;;
14125;SDS011;7141;49.484;11.242;2023-02-04T00:11:18;7.47;;;1.80;;
14125;SDS011;7141;49.484;11.242;2023-02-04T00:13:44;15.07;;;2.53;;
14125;SDS011;7141;49.484;11.242;2023-02-04T00:16:10;7.50;;;2.07;;
14125;SDS011;7141;49.484;11.242;2023-02-04T00:18:36;8.67;;;2.27;;
14125;SDS011;7141;49.484;11.242;2023-02-04T00:21:02;13.03;;;3.33;;
14125;SDS011;7141;49.484;11.242;2023-02-04T00:23:28;9.37;;;1.97;;
14125;SDS011;7141;49.484;11.242;2023-02-04T00:25:54;9.73;;;2.37;;
14125;SDS011;7141;49.484;11.242;2023-02-04T00:28:20;13.33;;;2.87;;
14125;SDS011;7141;49.484;11.242;2023-02-04T00:30:46;14.57;;;2.30;;
14125;SDS011;7141;49.484;11.242;2023-02-04T00:33:12;11.10;;;2.03;;
14125;SDS011;7141;49.484;11.242;2023-02-04T00:35:38;7.73;;;2.17;;
14125;SDS011;7141;49.484;11.242;2023-02-04T00:38:05;8.23;;;2.50;;
14125;SDS011;7141;49.484;11.242;2023-02-04T00:40:31;7.13;;;2.20;;
14125;SDS011;7141;49.484;11.242;2023-02-04T00:42:57;9.43;;;2.57;;
14125;SDS011;7141;49.484;11.242;2023-02-04T00:45:23;12.73;;;2.70;;
14125;SDS011;7141;49.484;11.242;2023-02-04T00:47:49;13.93;;;2.67;;
14125;SDS011;7141;49.484;11.242;2023-02-04T00:50:15;12.47;;;2.77;;
14125;SDS011;7141;49.484;11.242;2023-02-04T00:52:41;13.20;;;2.20;;
14125;SDS011;7141;49.484;11.242;2023-02-04T00:55:07;8.13;;;2.80;;
14125;SDS011;7141;49.484;11.242;2023-02-04T00:57:36;10.47;;;2.60;;
14125;SDS011;7141;49.484;11.242;2023-02-04T01:00:02;12.93;;;2.67;;
14125;SDS011;7141;49.484;11.242;2023-02-04T01:02:28;9.70;;;2.73;;
14125;SDS011;7141;49.484;11.242;2023-02-04T01:04:54;12.50;;;2.40;;
14125;SDS011;7141;49.484;11.242;2023-02-04T01:07:20;6.83;;;2.20;;
14125;SDS011;7141;49.484;11.242;2023-02-04T01:09:46;9.30;;;1.97;;
14125;SDS011;7141;49.484;11.242;2023-02-04T01:12:12;9.53;;;2.53;;
14125;SDS011;7141;49.484;11.242;2023-02-04T01:14:38;10.47;;;2.23;;
14125;SDS011;7141;49.484;11.242;2023-02-04T01:17:04;13.10;;;2.90;;
14125;SDS011;7141;49.484;11.242;2023-02-04T01:19:30;12.27;;;2.80;;
14125;SDS011;7141;49.484;11.242;2023-02-04T01:21:56;13.03;;;2.50;;
14125;SDS011;7141;49.484;11.242;2023-02-04T01:24:22;7.70;;;2.27;;
14125;SDS011;7141;49.484;11.242;2023-02-04T01:26:48;5.93;;;2.20;;
14125;SDS011;7141;49.484;11.242;2023-02-04T01:29:14;6.13;;;1.90;;
14125;SDS011;7141;49.484;11.242;2023-02-04T01:31:40;7.30;;;2.27;;
14125;SDS011;7141;49.484;11.242;2023-02-04T01:34:06;8.90;;;2.03;;
14125;SDS011;7141;49.484;11.242;2023-02-04T01:36:32;9.77;;;2.20;;
14125;SDS011;7141;49.484;11.242;2023-02-04T01:38:58;15.10;;;2.43;;
14125;SDS011;7141;49.484;11.242;2023-02-04T01:41:25;6.00;;;2.40;;
14125;SDS011;7141;49.484;11.242;2023-02-04T01:43:51;14.13;;;2.40;;
14125;SDS011;7141;49.484;11.242;2023-02-04T01:46:17;12.13;;;2.83;;
14125;SDS011;7141;49.484;11.242;2023-02-04T01:48:43;15.17;;;2.50;;
14125;SDS011;7141;49.484;11.242;2023-02-04T01:51:10;8.20;;;2.20;;
14125;SDS011;7141;49.484;11.242;2023-02-04T01:53:37;12.80;;;2.57;;
14125;SDS011;7141;49.484;11.242;2023-02-04T01:56:20;8.90;;;2.40;;
14125;SDS011;7141;49.484;11.242;2023-02-04T01:58:46;7.97;;;2.10;;
14125;SDS011;7141;49.484;11.242;2023-02-04T02:01:14;11.20;;;2.60;;
14125;SDS011;7141;49.484;11.242;2023-02-04T02:03:40;9.63;;;2.20;;
14125;SDS011;7141;49.484;11.242;2023-02-04T02:06:07;7.30;;;2.37;;
14125;SDS011;7141;49.484;11.242;2023-02-04T02:08:34;10.90;;;2.17;;
14125;SDS011;7141;49.484;11.242;2023-02-04T02:11:00;8.83;;;2.20;;
14125;SDS011;7141;49.484;11.242;2023-02-04T02:13:26;9.20;;;2.97;;
14125;SDS011;7141;49.484;11.242;2023-02-04T02:15:53;14.33;;;2.47;;
14125;SDS011;7141;49.484;11.242;2023-02-04T02:18:19;8.60;;;2.10;;
14125;SDS011;7141;49.484;11.242;2023-02-04T02:20:45;13.17;;;2.53;;
14125;SDS011;7141;49.484;11.242;2023-02-04T02:25:46;7.93;;;2.53;;
14125;SDS011;7141;49.484;11.242;2023-02-04T02:28:14;10.27;;;2.30;;
14125;SDS011;7141;49.484;11.242;2023-02-04T02:30:40;14.57;;;2.70;;
14125;SDS011;7141;49.484;11.242;2023-02-04T02:33:09;9.30;;;2.10;;
14125;SDS011;7141;49.484;11.242;2023-02-04T02:35:35;7.40;;;2.13;;
14125;SDS011;7141;49.484;11.242;2023-02-04T02:38:01;9.13;;;2.07;;
14125;SDS011;7141;49.484;11.242;2023-02-04T02:40:27;11.07;;;1.93;;
14125;SDS011;7141;49.484;11.242;2023-02-04T02:42:53;11.00;;;2.27;;
14125;SDS011;7141;49.484;11.242;2023-02-04T02:45:23;12.17;;;2.37;;
14125;SDS011;7141;49.484;11.242;2023-02-04T02:47:50;11.30;;;3.00;;
14125;SDS011;7141;49.484;11.242;2023-02-04T02:50:17;6.93;;;1.83;;
14125;SDS011;7141;49.484;11.242;2023-02-04T02:52:45;10.50;;;2.10;;
14125;SDS011;7141;49.484;11.242;2023-02-04T02:55:15;13.07;;;2.77;;
14125;SDS011;7141;49.484;11.242;2023-02-04T02:57:42;12.70;;;2.53;;
14125;SDS011;7141;49.484;11.242;2023-02-04T03:00:13;7.50;;;1.80;;
14125;SDS011;7141;49.484;11.242;2023-02-04T03:02:39;11.13;;;2.23;;
14125;SDS011;7141;49.484;11.242;2023-02-04T03:05:05;13.57;;;2.47;;
14125;SDS011;7141;49.484;11.242;2023-02-04T03:07:31;6.93;;;1.93;;
14125;SDS011;7141;49.484;11.242;2023-02-04T03:09:57;6.10;;;1.70;;
14125;SDS011;7141;49.484;11.242;2023-02-04T03:12:23;7.60;;;1.60;;
14125;SDS011;7141;49.484;11.242;2023-02-04T03:14:49;13.07;;;2.73;;
14125;SDS011;7141;49.484;11.242;2023-02-04T03:17:15;8.90;;;2.07;;
14125;SDS011;7141;49.484;11.242;2023-02-04T03:19:41;9.47;;;2.40;;
14125;SDS011;7141;49.484;11.242;2023-02-04T03:22:07;9.60;;;2.10;;
14125;SDS011;7141;49.484;11.242;2023-02-04T03:24:34;11.07;;;1.80;;
14125;SDS011;7141;49.484;11.242;2023-02-04T03:27:00;6.67;;;1.80;;
14125;SDS011;7141;49.484;11.242;2023-02-04T03:29:26;14.70;;;2.07;;
14125;SDS011;7141;49.484;11.242;2023-02-04T03:31:52;11.90;;;2.47;;
14125;SDS011;7141;49.484;11.242;2023-02-04T03:34:20;10.10;;;2.27;;
14125;SDS011;7141;49.484;11.242;2023-02-04T03:36:45;9.47;;;2.40;;
14125;SDS011;7141;49.484;11.242;2023-02-04T03:39:11;11.67;;;2.40;;
14125;SDS011;7141;49.484;11.242;2023-02-04T03:41:37;10.17;;;2.20;;
14125;SDS011;7141;49.484;11.242;2023-02-04T03:44:03;9.07;;;2.13;;
14125;SDS011;7141;49.484;11.242;2023-02-04T03:46:29;11.90;;;2.23;;
14125;SDS011;7141;49.484;11.242;2023-02-04T03:48:55;10.40;;;1.87;;
14125;SDS011;7141;49.484;11.242;2023-02-04T03:51:21;12.07;;;2.97;;
14125;SDS011;7141;49.484;11.242;2023-02-04T03:53:47;10.67;;;1.93;;
14125;SDS011;7141;49.484;11.242;2023-02-04T03:56:13;11.70;;;2.40;;
14125;SDS011;7141;49.484;11.242;2023-02-04T03:58:39;10.53;;;2.30;;
14125;SDS011;7141;49.484;11.242;2023-02-04T04:01:05;10.23;;;2.57;;
14125;SDS011;7141;49.484;11.242;2023-02-04T04:03:31;8.50;;;2.03;;
14125;SDS011;7141;49.484;11.242;2023-02-04T04:05:57;13.43;;;2.37;;
14125;SDS011;7141;49.484;11.242;2023-02-04T04:08:23;11.00;;;2.70;;
14125;SDS011;7141;49.484;11.242;2023-02-04T04:10:49;6.77;;;1.70;;
14125;SDS011;7141;49.484;11.242;2023-02-04T04:13:15;7.30;;;2.90;;
14125;SDS011;7141;49.484;11.242;2023-02-04T04:15:41;7.83;;;1.97;;
14125;SDS011;7141;49.484;11.242;2023-02-04T04:18:07;8.63;;;2.37;;
14125;SDS011;7141;49.484;11.242;2023-02-04T04:20:33;9.50;;;1.90;;
14125;SDS011;7141;49.484;11.242;2023-02-04T04:22:59;9.53;;;2.10;;
14125;SDS011;7141;49.484;11.242;2023-02-04T04:25:25;12.57;;;1.93;;
14125;SDS011;7141;49.484;11.242;2023-02-04T04:27:51;11.53;;;2.30;;
14125;SDS011;7141;49.484;11.242;2023-02-04T04:30:17;16.17;;;2.80;;
14125;SDS011;7141;49.484;11.242;2023-02-04T04:32:43;13.83;;;2.33;;
14125;SDS011;7141;49.484;11.242;2023-02-04T04:35:09;7.53;;;2.37;;
14125;SDS011;7141;49.484;11.242;2023-02-04T04:37:35;11.40;;;2.10;;
14125;SDS011;7141;49.484;11.242;2023-02-04T04:40:01;10.40;;;1.97;;
14125;SDS011;7141;49.484;11.242;2023-02-04T04:42:27;11.57;;;2.13;;
14125;SDS011;7141;49.484;11.242;2023-02-04T04:44:53;11.63;;;2.60;;
14125;SDS011;7141;49.484;11.242;2023-02-04T04:47:19;7.87;;;2.03;;
14125;SDS011;7141;49.484;11.242;2023-02-04T04:49:45;8.93;;;2.40;;
14125;SDS011;7141;49.484;11.242;2023-02-04T04:52:11;8.10;;;1.90;;
14125;SDS011;7141;49.484;11.242;2023-02-04T04:54:37;7.80;;;2.77;;
14125;SDS011;7141;49.484;11.242;2023-02-04T04:57:03;10.80;;;2.10;;
14125;SDS011;7141;49.484;11.242;2023-02-04T04:59:29;10.40;;;2.37;;
14125;SDS011;7141;49.484;11.242;2023-02-04T05:01:55;8.83;;;1.73;;
14125;SDS011;7141;49.484;11.242;2023-02-04T05:04:21;11.10;;;2.43;;
14125;SDS011;7141;49.484;11.242;2023-02-04T05:06:47;10.20;;;2.07;;
14125;SDS011;7141;49.484;11.242;2023-02-04T05:09:12;8.17;;;2.20;;
14125;SDS011;7141;49.484;11.242;2023-02-04T05:11:40;9.93;;;2.37;;
14125;SDS011;7141;49.484;11.242;2023-02-04T05:14:06;9.73;;;2.00;;
14125;SDS011;7141;49.484;11.242;2023-02-04T05:16:32;12.23;;;2.00;;
14125;SDS011;7141;49.484;11.242;2023-02-04T05:18:58;6.63;;;1.83;;
14125;SDS011;7141;49.484;11.242;2023-02-04T05:21:24;9.50;;;2.10;;
14125;SDS011;7141;49.484;11.242;2023-02-04T05:23:50;10.87;;;2.30;;
14125;SDS011;7141;49.484;11.242;2023-02-04T05:26:16;9.80;;;1.77;;
14125;SDS011;7141;49.484;11.242;2023-02-04T05:28:42;7.10;;;2.00;;
14125;SDS011;7141;49.484;11.242;2023-02-04T05:31:08;8.37;;;2.33;;
14125;SDS011;7141;49.484;11.242;2023-02-04T05:33:34;11.57;;;2.30;;
14125;SDS011;7141;49.484;11.242;2023-02-04T05:36:00;14.27;;;2.27;;
14125;SDS011;7141;49.484;11.242;2023-02-04T05:38:26;9.97;;;1.90;;
14125;SDS011;7141;49.484;11.242;2023-02-04T05:40:52;11.73;;;2.07;;
14125;SDS011;7141;49.484;11.242;2023-02-04T05:43:18;8.33;;;2.17;;
14125;SDS011;7141;49.484;11.242;2023-02-04T05:45:44;11.93;;;2.50;;
14125;SDS011;7141;49.484;11.242;2023-02-04T05:48:09;8.83;;;2.27;;
14125;SDS011;7141;49.484;11.242;2023-02-04T05:50:35;5.07;;;1.80;;
14125;SDS011;7141;49.484;11.242;2023-02-04T05:53:01;8.47;;;2.37;;
14125;SDS011;7141;49.484;11.242;2023-02-04T05:55:27;13.77;;;2.80;;
14125;SDS011;7141;49.484;11.242;2023-02-04T05:57:53;6.60;;;1.43;;
14125;SDS011;7141;49.484;11.242;2023-02-04T06:00:19;6.80;;;1.20;;
14125;SDS011;7141;49.484;11.242;2023-02-04T06:02:45;5.80;;;1.10;;
14125;SDS011;7141;49.484;11.242;2023-02-04T06:05:11;3.70;;;0.90;;
14125;SDS011;7141;49.484;11.242;2023-02-04T06:07:37;1.83;;;0.80;;
14125;SDS011;7141;49.484;11.242;2023-02-04T06:10:03;1.07;;;0.60;;
14125;SDS011;7141;49.484;11.242;2023-02-04T06:12:29;1.63;;;0.77;;
14125;SDS011;7141;49.484;11.242;2023-02-04T06:14:55;1.73;;;0.73;;
14125;SDS011;7141;49.484;11.242;2023-02-04T06:17:21;0.70;;;0.60;;
14125;SDS011;7141;49.484;11.242;2023-02-04T06:19:47;1.37;;;0.90;;
14125;SDS011;7141;49.484;11.242;2023-02-04T06:22:13;1.73;;;0.87;;
14125;SDS011;7141;49.484;11.242;2023-02-04T06:24:39;0.93;;;0.90;;
14125;SDS011;7141;49.484;11.242;2023-02-04T06:27:05;1.13;;;0.73;;
14125;SDS011;7141;49.484;11.242;2023-02-04T06:29:31;1.00;;;0.90;;
14125;SDS011;7141;49.484;11.242;2023-02-04T06:31:57;1.37;;;0.87;;
14125;SDS011;7141;49.484;11.242;2023-02-04T06:34:23;3.00;;;0.90;;
14125;SDS011;7141;49.484;11.242;2023-02-04T06:36:49;1.67;;;0.83;;
14125;SDS011;7141;49.484;11.242;2023-02-04T06:39:15;1.20;;;0.97;;
14125;SDS011;7141;49.484;11.242;2023-02-04T06:41:41;2.70;;;0.83;;
14125;SDS011;7141;49.484;11.242;2023-02-04T06:44:07;0.70;;;0.70;;
14125;SDS011;7141;49.484;11.242;2023-02-04T06:46:33;1.80;;;1.03;;
14125;SDS011;7141;49.484;11.242;2023-02-04T06:48:59;0.90;;;0.90;;
14125;SDS011;7141;49.484;11.242;2023-02-04T06:51:25;1.97;;;1.00;;
14125;SDS011;7141;49.484;11.242;2023-02-04T06:53:51;3.27;;;2.10;;
14125;SDS011;7141;49.484;11.242;2023-02-04T06:56:17;1.63;;;1.17;;
14125;SDS011;7141;49.484;11.242;2023-02-04T06:58:43;1.43;;;1.10;;
14125;SDS011;7141;49.484;11.242;2023-02-04T07:01:09;1.87;;;1.30;;
14125;SDS011;7141;49.484;11.242;2023-02-04T07:03:35;2.00;;;1.00;;
14125;SDS011;7141;49.484;11.242;2023-02-04T07:06:01;2.80;;;1.00;;
14125;SDS011;7141;49.484;11.242;2023-02-04T07:08:27;2.03;;;1.17;;
14125;SDS011;7141;49.484;11.242;2023-02-04T07:10:53;2.53;;;1.10;;
14125;SDS011;7141;49.484;11.242;2023-02-04T07:13:19;1.40;;;1.30;;
14125;SDS011;7141;49.484;11.242;2023-02-04T07:15:45;2.33;;;1.27;;
14125;SDS011;7141;49.484;11.242;2023-02-04T07:18:11;1.20;;;1.10;;
14125;SDS011;7141;49.484;11.242;2023-02-04T07:20:37;1.67;;;1.57;;
14125;SDS011;7141;49.484;11.242;2023-02-04T07:23:03;1.87;;;1.30;;
14125;SDS011;7141;49.484;11.242;2023-02-04T07:25:29;2.20;;;1.20;;
14125;SDS011;7141;49.484;11.242;2023-02-04T07:27:55;1.57;;;1.30;;
14125;SDS011;7141;49.484;11.242;2023-02-04T07:30:23;2.73;;;1.20;;
14125;SDS011;7141;49.484;11.242;2023-02-04T07:32:49;2.30;;;1.70;;
14125;SDS011;7141;49.484;11.242;2023-02-04T07:35:15;2.80;;;1.70;;
14125;SDS011;7141;49.484;11.242;2023-02-04T07:37:41;2.33;;;1.70;;
14125;SDS011;7141;49.484;11.242;2023-02-04T07:40:08;1.20;;;1.10;;
14125;SDS011;7141;49.484;11.242;2023-02-04T07:42:34;2.57;;;1.00;;
14125;SDS011;7141;49.484;11.242;2023-02-04T07:45:00;2.20;;;1.20;;
14125;SDS011;7141;49.484;11.242;2023-02-04T07:47:26;2.03;;;1.17;;
14125;SDS011;7141;49.484;11.242;2023-02-04T07:49:52;2.07;;;1.47;;
14125;SDS011;7141;49.484;11.242;2023-02-04T07:52:21;2.60;;;1.20;;
14125;SDS011;7141;49.484;11.242;2023-02-04T07:54:46;1.97;;;1.50;;
14125;SDS011;7141;49.484;11.242;2023-02-04T07:57:13;2.30;;;1.30;;
14125;SDS011;7141;49.484;11.242;2023-02-04T07:59:39;1.60;;;1.50;;
14125;SDS011;7141;49.484;11.242;2023-02-04T08:02:05;1.53;;;1.40;;
14125;SDS011;7141;49.484;11.242;2023-02-04T08:04:31;2.63;;;1.80;;
14125;SDS011;7141;49.484;11.242;2023-02-04T08:06:57;2.27;;;1.40;;
14125;SDS011;7141;49.484;11.242;2023-02-04T08:09:23;1.57;;;1.00;;
14125;SDS011;7141;49.484;11.242;2023-02-04T08:11:51;1.73;;;1.53;;
14125;SDS011;7141;49.484;11.242;2023-02-04T08:14:17;2.67;;;1.50;;
14125;SDS011;7141;49.484;11.242;2023-02-04T08:16:43;1.30;;;1.10;;
14125;SDS011;7141;49.484;11.242;2023-02-04T08:19:09;1.20;;;1.10;;
14125;SDS011;7141;49.484;11.242;2023-02-04T08:21:35;2.07;;;1.30;;
14125;SDS011;7141;49.484;11.242;2023-02-04T08:24:01;1.57;;;1.23;;
14125;SDS011;7141;49.484;11.242;2023-02-04T08:26:27;1.27;;;1.10;;
14125;SDS011;7141;49.484;11.242;2023-02-04T08:28:52;1.30;;;1.20;;
14125;SDS011;7141;49.484;11.242;2023-02-04T08:31:18;1.97;;;1.03;;
14125;SDS011;7141;49.484;11.242;2023-02-04T08:33:44;1.10;;;1.00;;
14125;SDS011;7141;49.484;11.242;2023-02-04T08:36:10;1.33;;;1.10;;
14125;SDS011;7141;49.484;11.242;2023-02-04T08:38:36;1.47;;;1.20;;
14125;SDS011;7141;49.484;11.242;2023-02-04T08:41:04;1.50;;;1.10;;
14125;SDS011;7141;49.484;11.242;2023-02-04T08:43:30;1.20;;;1.00;;
14125;SDS011;7141;49.484;11.242;2023-02-04T08:45:56;1.37;;;1.20;;
14125;SDS011;7141;49.484;11.242;2023-02-04T08:48:22;1.47;;;0.97;;
14125;SDS011;7141;49.484;11.242;2023-02-04T08:50:48;14.77;;;6.07;;
14125;SDS011;7141;49.484;11.242;2023-02-04T08:53:14;1.60;;;1.10;;
14125;SDS011;7141;49.484;11.242;2023-02-04T08:55:40;10.07;;;4.00;;
14125;SDS011;7141;49.484;11.242;2023-02-04T08:58:06;3.53;;;2.00;;
14125;SDS011;7141;49.484;11.242;2023-02-04T09:00:32;2.33;;;1.30;;
14125;SDS011;7141;49.484;11.242;2023-02-04T09:02:58;3.67;;;1.63;;
14125;SDS011;7141;49.484;11.242;2023-02-04T09:05:24;1.90;;;1.17;;
14125;SDS011;7141;49.484;11.242;2023-02-04T09:07:50;6.33;;;2.80;;
14125;SDS011;7141;49.484;11.242;2023-02-04T09:10:16;1.40;;;1.30;;
14125;SDS011;7141;49.484;11.242;2023-02-04T09:12:42;1.67;;;1.07;;
14125;SDS011;7141;49.484;11.242;2023-02-04T09:15:08;1.40;;;1.30;;
14125;SDS011;7141;49.484;11.242;2023-02-04T09:17:34;1.23;;;1.03;;
14125;SDS011;7141;49.484;11.242;2023-02-04T09:20:01;1.57;;;1.30;;
14125;SDS011;7141;49.484;11.242;2023-02-04T09:22:27;2.03;;;1.13;;
14125;SDS011;7141;49.484;11.242;2023-02-04T09:24:53;0.97;;;0.80;;
14125;SDS011;7141;49.484;11.242;2023-02-04T09:27:20;0.83;;;0.70;;
14125;SDS011;7141;49.484;11.242;2023-02-04T09:29:46;0.80;;;0.80;;
14125;SDS011;7141;49.484;11.242;2023-02-04T09:32:12;2.23;;;1.37;;
14125;SDS011;7141;49.484;11.242;2023-02-04T09:34:38;1.13;;;0.97;;
14125;SDS011;7141;49.484;11.242;2023-02-04T09:37:04;1.37;;;0.73;;
14125;SDS011;7141;49.484;11.242;2023-02-04T09:39:30;0.87;;;0.80;;
14125;SDS011;7141;49.484;11.242;2023-02-04T09:41:55;0.73;;;0.70;;
14125;SDS011;7141;49.484;11.242;2023-02-04T09:44:23;0.80;;;0.60;;
14125;SDS011;7141;49.484;11.242;2023-02-04T09:46:51;0.70;;;0.70;;
14125;SDS011;7141;49.484;11.242;2023-02-04T09:49:18;1.07;;;0.80;;
14125;SDS011;7141;49.484;11.242;2023-02-04T09:51:44;1.47;;;0.90;;
14125;SDS011;7141;49.484;11.242;2023-02-04T09:54:12;0.50;;;0.50;;
14125;SDS011;7141;49.484;11.242;2023-02-04T09:56:39;0.57;;;0.57;;
14125;SDS011;7141;49.484;11.242;2023-02-04T09:59:15;1.13;;;0.70;;
14125;SDS011;7141;49.484;11.242;2023-02-04T10:01:42;0.70;;;0.70;;
14125;SDS011;7141;49.484;11.242;2023-02-04T10:04:09;0.77;;;0.77;;
14125;SDS011;7141;49.484;11.242;2023-02-04T10:06:36;0.80;;;0.77;;
14125;SDS011;7141;49.484;11.242;2023-02-04T10:09:03;1.47;;;0.90;;
14125;SDS011;7141;49.484;11.242;2023-02-04T10:11:29;1.90;;;1.40;;
14125;SDS011;7141;49.484;11.242;2023-02-04T10:13:57;1.30;;;1.00;;
14125;SDS011;7141;49.484;11.242;2023-02-04T10:16:23;2.57;;;1.00;;
14125;SDS011;7141;49.484;11.242;2023-02-04T10:18:54;0.73;;;0.63;;
14125;SDS011;7141;49.484;11.242;2023-02-04T10:21:26;0.70;;;0.70;;
14125;SDS011;7141;49.484;11.242;2023-02-04T10:23:56;1.83;;;0.90;;
14125;SDS011;7141;49.484;11.242;2023-02-04T10:26:23;2.33;;;1.40;;
14125;SDS011;7141;49.484;11.242;2023-02-04T10:28:56;0.83;;;0.80;;
14125;SDS011;7141;49.484;11.242;2023-02-04T10:31:29;0.80;;;0.80;;
14125;SDS011;7141;49.484;11.242;2023-02-04T10:34:10;1.90;;;1.03;;
14125;SDS011;7141;49.484;11.242;2023-02-04T10:36:37;1.47;;;1.00;;
14125;SDS011;7141;49.484;11.242;2023-02-04T10:39:05;1.57;;;1.03;;
14125;SDS011;7141;49.484;11.242;2023-02-04T10:41:31;1.70;;;1.23;;
14125;SDS011;7141;49.484;11.242;2023-02-04T10:44:06;1.37;;;1.20;;
14125;SDS011;7141;49.484;11.242;2023-02-04T10:46:32;1.33;;;1.13;;
14125;SDS011;7141;49.484;11.242;2023-02-04T10:48:58;1.30;;;1.20;;
14125;SDS011;7141;49.484;11.242;2023-02-04T10:51:24;1.57;;;1.03;;
14125;SDS011;7141;49.484;11.242;2023-02-04T10:53:50;2.03;;;1.10;;
14125;SDS011;7141;49.484;11.242;2023-02-04T10:56:35;3.23;;;2.10;;
14125;SDS011;7141;49.484;11.242;2023-02-04T10:59:01;1.97;;;1.13;;
14125;SDS011;7141;49.484;11.242;2023-02-04T11:01:27;1.67;;;1.57;;
14125;SDS011;7141;49.484;11.242;2023-02-04T11:03:54;3.00;;;2.17;;
14125;SDS011;7141;49.484;11.242;2023-02-04T11:06:20;1.60;;;1.33;;
14125;SDS011;7141;49.484;11.242;2023-02-04T11:08:47;1.13;;;1.03;;
14125;SDS011;7141;49.484;11.242;2023-02-04T11:11:22;1.90;;;1.27;;
14125;SDS011;7141;49.484;11.242;2023-02-04T11:16:25;1.63;;;1.30;;
14125;SDS011;7141;49.484;11.242;2023-02-04T11:18:58;1.10;;;1.00;;
14125;SDS011;7141;49.484;11.242;2023-02-04T11:21:26;0.70;;;0.70;;
14125;SDS011;7141;49.484;11.242;2023-02-04T11:26:41;0.90;;;0.80;;
14125;SDS011;7141;49.484;11.242;2023-02-04T11:31:42;1.33;;;0.93;;
14125;SDS011;7141;49.484;11.242;2023-02-04T11:39:21;0.90;;;0.90;;
14125;SDS011;7141;49.484;11.242;2023-02-04T11:41:47;1.17;;;1.00;;
14125;SDS011;7141;49.484;11.242;2023-02-04T11:44:13;2.07;;;1.20;;
14125;SDS011;7141;49.484;11.242;2023-02-04T11:46:40;1.27;;;0.80;;
14125;SDS011;7141;49.484;11.242;2023-02-04T11:49:14;3.53;;;3.07;;
14125;SDS011;7141;49.484;11.242;2023-02-04T11:51:41;5.80;;;4.00;;
14125;SDS011;7141;49.484;11.242;2023-02-04T11:54:10;4.47;;;3.20;;
14125;SDS011;7141;49.484;11.242;2023-02-04T11:56:36;2.47;;;2.20;;
14125;SDS011;7141;49.484;11.242;2023-02-04T11:59:02;1.00;;;1.00;;
14125;SDS011;7141;49.484;11.242;2023-02-04T12:01:32;1.03;;;0.93;;
14125;SDS011;7141;49.484;11.242;2023-02-04T12:03:59;2.73;;;2.30;;
14125;SDS011;7141;49.484;11.242;2023-02-04T12:06:27;1.27;;;1.10;;
14125;SDS011;7141;49.484;11.242;2023-02-04T12:09:03;1.10;;;1.00;;
14125;SDS011;7141;49.484;11.242;2023-02-04T12:11:30;1.27;;;1.07;;
14125;SDS011;7141;49.484;11.242;2023-02-04T12:13:57;5.27;;;3.13;;
14125;SDS011;7141;49.484;11.242;2023-02-04T12:16:23;3.77;;;2.50;;
14125;SDS011;7141;49.484;11.242;2023-02-04T12:18:50;3.17;;;1.93;;
14125;SDS011;7141;49.484;11.242;2023-02-04T12:21:16;1.77;;;1.10;;
14125;SDS011;7141;49.484;11.242;2023-02-04T12:23:45;2.47;;;1.67;;
14125;SDS011;7141;49.484;11.242;2023-02-04T12:26:11;2.70;;;1.83;;
14125;SDS011;7141;49.484;11.242;2023-02-04T12:28:37;2.00;;;1.77;;
14125;SDS011;7141;49.484;11.242;2023-02-04T12:31:03;1.07;;;0.80;;
14125;SDS011;7141;49.484;11.242;2023-02-04T12:33:29;1.10;;;1.00;;
14125;SDS011;7141;49.484;11.242;2023-02-04T12:35:55;1.00;;;0.60;;
14125;SDS011;7141;49.484;11.242;2023-02-04T12:38:21;1.53;;;1.43;;
14125;SDS011;7141;49.484;11.242;2023-02-04T12:40:47;1.40;;;1.30;;
14125;SDS011;7141;49.484;11.242;2023-02-04T12:43:13;1.30;;;1.20;;
14125;SDS011;7141;49.484;11.242;2023-02-04T12:45:39;1.30;;;1.20;;
14125;SDS011;7141;49.484;11.242;2023-02-04T12:48:09;0.80;;;0.70;;
14125;SDS011;7141;49.484;11.242;2023-02-04T12:50:35;1.33;;;1.20;;
14125;SDS011;7141;49.484;11.242;2023-02-04T12:53:01;0.87;;;0.87;;
14125;SDS011;7141;49.484;11.242;2023-02-04T12:55:28;0.80;;;0.60;;
14125;SDS011;7141;49.484;11.242;2023-02-04T12:57:54;1.33;;;0.70;;
14125;SDS011;7141;49.484;11.242;2023-02-04T13:00:21;2.90;;;0.90;;
14125;SDS011;7141;49.484;11.242;2023-02-04T13:02:47;3.73;;;0.90;;
14125;SDS011;7141;49.484;11.242;2023-02-04T13:05:13;0.63;;;0.63;;
14125;SDS011;7141;49.484;11.242;2023-02-04T13:07:40;0.60;;;0.60;;
14125;SDS011;7141;49.484;11.242;2023-02-04T13:10:09;0.67;;;0.67;;
14125;SDS011;7141;49.484;11.242;2023-02-04T13:12:35;1.17;;;1.07;;
14125;SDS011;7141;49.484;11.242;2023-02-04T13:15:01;1.00;;;0.80;;
14125;SDS011;7141;49.484;11.242;2023-02-04T13:17:27;1.30;;;0.90;;
14125;SDS011;7141;49.484;11.242;2023-02-04T13:19:53;1.40;;;1.00;;
14125;SDS011;7141;49.484;11.242;2023-02-04T13:22:19;1.13;;;0.90;;
14125;SDS011;7141;49.484;11.242;2023-02-04T13:24:45;0.97;;;0.90;;
14125;SDS011;7141;49.484;11.242;2023-02-04T13:27:11;1.43;;;0.90;;
14125;SDS011;7141;49.484;11.242;2023-02-04T13:29:37;1.10;;;0.90;;
14125;SDS011;7141;49.484;11.242;2023-02-04T13:32:03;1.10;;;1.00;;
14125;SDS011;7141;49.484;11.242;2023-02-04T13:34:29;0.70;;;0.70;;
14125;SDS011;7141;49.484;11.242;2023-02-04T13:36:55;1.60;;;1.20;;
14125;SDS011;7141;49.484;11.242;2023-02-04T13:39:21;5.03;;;2.47;;
14125;SDS011;7141;49.484;11.242;2023-02-04T13:41:47;3.20;;;2.43;;
14125;SDS011;7141;49.484;11.242;2023-02-04T13:44:13;1.10;;;0.83;;
14125;SDS011;7141;49.484;11.242;2023-02-04T13:46:39;0.90;;;0.90;;
14125;SDS011;7141;49.484;11.242;2023-02-04T13:49:05;1.10;;;0.80;;
14125;SDS011;7141;49.484;11.242;2023-02-04T13:51:31;1.10;;;0.70;;
14125;SDS011;7141;49.484;11.242;2023-02-04T13:53:57;0.90;;;0.90;;
14125;SDS011;7141;49.484;11.242;2023-02-04T13:56:24;1.00;;;0.70;;
14125;SDS011;7141;49.484;11.242;2023-02-04T13:58:50;2.20;;;0.80;;
14125;SDS011;7141;49.484;11.242;2023-02-04T14:01:16;1.07;;;0.90;;
14125;SDS011;7141;49.484;11.242;2023-02-04T14:03:42;1.10;;;0.80;;
14125;SDS011;7141;49.484;11.242;2023-02-04T14:06:09;1.27;;;0.87;;
14125;SDS011;7141;49.484;11.242;2023-02-04T14:08:35;1.10;;;1.00;;
14125;SDS011;7141;49.484;11.242;2023-02-04T14:11:01;1.43;;;1.00;;
14125;SDS011;7141;49.484;11.242;2023-02-04T14:13:27;3.27;;;1.07;;
14125;SDS011;7141;49.484;11.242;2023-02-04T14:15:53;1.17;;;1.07;;
14125;SDS011;7141;49.484;11.242;2023-02-04T14:18:19;1.93;;;0.80;;
14125;SDS011;7141;49.484;11.242;2023-02-04T14:20:45;0.63;;;0.63;;
14125;SDS011;7141;49.484;11.242;2023-02-04T14:23:11;2.23;;;0.80;;
14125;SDS011;7141;49.484;11.242;2023-02-04T14:25:37;1.60;;;1.00;;
14125;SDS011;7141;49.484;11.242;2023-02-04T14:28:03;1.20;;;0.90;;
14125;SDS011;7141;49.484;11.242;2023-02-04T14:30:30;0.87;;;0.87;;
14125;SDS011;7141;49.484;11.242;2023-02-04T14:32:56;2.10;;;0.90;;
14125;SDS011;7141;49.484;11.242;2023-02-04T14:35:23;1.63;;;0.97;;
14125;SDS011;7141;49.484;11.242;2023-02-04T14:37:49;1.10;;;1.00;;
14125;SDS011;7141;49.484;11.242;2023-02-04T14:40:16;1.00;;;0.80;;
14125;SDS011;7141;49.484;11.242;2023-02-04T14:42:42;1.80;;;1.27;;
14125;SDS011;7141;49.484;11.242;2023-02-04T14:45:09;1.43;;;1.07;;
14125;SDS011;7141;49.484;11.242;2023-02-04T14:47:35;0.80;;;0.80;;
14125;SDS011;7141;49.484;11.242;2023-02-04T14:50:02;1.50;;;1.10;;
14125;SDS011;7141;49.484;11.242;2023-02-04T14:52:28;1.50;;;1.00;;
14125;SDS011;7141;49.484;11.242;2023-02-04T14:54:54;1.53;;;1.07;;
14125;SDS011;7141;49.484;11.242;2023-02-04T14:57:20;1.40;;;1.30;;